createdAt,value
2019-06-01T00:00:10.719Z,0.00
2019-06-01T00:01:02.130Z,0.00
2019-06-01T00:02:02.115Z,0.00
2019-06-01T00:03:02.114Z,0.00
2019-06-01T00:04:02.095Z,0.00
2019-06-01T00:05:02.073Z,0.00
2019-06-01T00:06:02.055Z,0.00
2019-06-01T00:07:02.038Z,0.00
2019-06-01T00:08:02.024Z,0.00
2019-06-01T00:09:02.020Z,0.00
2019-06-01T00:10:01.995Z,0.00
2019-06-01T00:11:01.992Z,0.00
2019-06-01T00:12:01.973Z,0.00
2019-06-01T00:13:01.959Z,0.00
2019-06-01T00:14:01.942Z,0.00
2019-06-01T00:15:01.969Z,0.00
2019-06-01T00:16:01.911Z,0.00
2019-06-01T00:17:01.896Z,0.00
2019-06-01T00:18:01.884Z,0.00
2019-06-01T00:19:01.874Z,0.00
2019-06-01T00:20:01.865Z,0.00
2019-06-01T00:21:01.863Z,0.00
2019-06-01T00:22:01.831Z,0.00
2019-06-01T00:23:01.811Z,0.00
2019-06-01T00:24:01.805Z,0.00
2019-06-01T00:25:01.783Z,0.00
2019-06-01T00:26:01.769Z,0.00
2019-06-01T00:27:01.758Z,0.00
2019-06-01T00:28:01.748Z,0.00
2019-06-01T00:29:01.727Z,0.00
2019-06-01T00:30:01.712Z,0.00
2019-06-01T00:31:01.698Z,0.00
2019-06-01T00:32:01.686Z,0.00
2019-06-01T00:33:01.671Z,0.00
2019-06-01T00:34:01.655Z,0.00
2019-06-01T00:35:01.671Z,0.00
2019-06-01T00:36:01.624Z,0.00
2019-06-01T00:37:01.616Z,0.00
2019-06-01T00:38:01.597Z,0.00
2019-06-01T00:39:01.592Z,0.00
2019-06-01T00:40:01.574Z,0.00
2019-06-01T00:41:01.555Z,0.00
2019-06-01T00:42:01.539Z,0.00
2019-06-01T00:43:01.527Z,0.00
2019-06-01T00:44:01.513Z,0.00
2019-06-01T00:45:01.586Z,0.00
2019-06-01T00:46:01.484Z,0.00
2019-06-01T00:47:01.472Z,0.00
2019-06-01T00:48:01.457Z,0.00
2019-06-01T00:49:01.438Z,0.00
2019-06-01T00:50:01.428Z,0.00
2019-06-01T00:51:01.413Z,0.00
2019-06-01T00:52:01.410Z,0.00
2019-06-01T00:53:01.386Z,0.00
2019-06-01T00:54:01.366Z,0.00
2019-06-01T00:55:01.357Z,0.00
2019-06-01T00:56:01.341Z,0.00
2019-06-01T00:57:01.326Z,0.00
2019-06-01T00:58:01.308Z,0.00
2019-06-01T00:59:01.295Z,0.00
2019-06-01T01:00:01.278Z,0.00
2019-06-01T01:01:01.264Z,0.00
2019-06-01T01:02:01.263Z,0.00
2019-06-01T01:03:01.235Z,0.00
2019-06-01T01:04:01.232Z,0.00
2019-06-01T01:05:01.207Z,0.00
2019-06-01T01:06:01.196Z,0.00
2019-06-01T01:07:01.177Z,0.00
2019-06-01T01:08:01.214Z,0.00
2019-06-01T01:09:01.150Z,0.00
2019-06-01T01:10:01.144Z,0.00
2019-06-01T01:11:01.118Z,0.00
2019-06-01T01:12:01.103Z,0.00
2019-06-01T01:13:01.088Z,0.00
2019-06-01T01:14:01.076Z,0.00
2019-06-01T01:15:01.075Z,0.00
2019-06-01T01:16:01.051Z,0.00
2019-06-01T01:17:01.029Z,0.00
2019-06-01T01:18:01.019Z,0.00
2019-06-01T01:19:01.001Z,0.00
2019-06-01T01:20:00.992Z,0.00
2019-06-01T01:21:00.977Z,0.00
2019-06-01T01:22:01.008Z,0.00
2019-06-01T01:23:00.944Z,0.00
2019-06-01T01:24:00.929Z,0.00
2019-06-01T01:25:00.914Z,0.00
2019-06-01T01:26:00.898Z,0.00
2019-06-01T01:27:00.886Z,0.00
2019-06-01T01:28:00.871Z,0.00
2019-06-01T01:29:00.856Z,0.00
2019-06-01T01:30:00.860Z,0.00
2019-06-01T01:31:12.743Z,0.00
2019-06-01T01:32:00.818Z,0.00
2019-06-01T01:33:00.799Z,0.00
2019-06-01T01:34:00.782Z,0.00
2019-06-01T01:35:00.801Z,0.00
2019-06-01T01:36:00.750Z,0.00
2019-06-01T01:37:00.738Z,0.00
2019-06-01T01:38:00.728Z,0.00
2019-06-01T01:39:00.710Z,0.00
2019-06-01T01:40:00.692Z,0.00
2019-06-01T01:41:00.681Z,0.00
2019-06-01T01:42:00.674Z,0.00
2019-06-01T01:43:00.648Z,0.00
2019-06-01T01:44:00.635Z,0.00
2019-06-01T01:45:00.617Z,0.00
2019-06-01T01:46:00.606Z,0.00
2019-06-01T01:47:00.591Z,0.00
2019-06-01T01:48:01.425Z,0.00
2019-06-01T01:49:00.562Z,0.00
2019-06-01T01:50:00.542Z,0.00
2019-06-01T01:51:00.528Z,0.00
2019-06-01T01:52:01.635Z,0.00
2019-06-01T01:53:00.497Z,0.00
2019-06-01T01:54:00.497Z,0.00
2019-06-01T01:55:00.471Z,0.00
2019-06-01T01:56:01.170Z,0.00
2019-06-01T01:57:00.437Z,0.00
2019-06-01T01:58:01.640Z,0.00
2019-06-01T01:59:00.410Z,0.00
2019-06-01T02:00:01.722Z,0.00
2019-06-01T02:01:16.274Z,0.00
2019-06-01T02:02:00.364Z,0.00
2019-06-01T02:03:00.348Z,0.00
2019-06-01T02:04:00.331Z,0.00
2019-06-01T02:05:00.316Z,0.00
2019-06-01T02:06:00.302Z,0.00
2019-06-01T02:07:00.429Z,0.00
2019-06-01T02:08:01.853Z,0.00
2019-06-01T02:09:01.862Z,0.00
2019-06-01T02:10:01.777Z,0.00
2019-06-01T02:11:01.684Z,0.00
2019-06-01T02:12:00.211Z,0.00
2019-06-01T02:13:00.195Z,0.00
2019-06-01T02:14:00.180Z,0.00
2019-06-01T02:15:00.166Z,0.00
2019-06-01T02:16:00.645Z,0.00
2019-06-01T02:17:00.337Z,0.00
2019-06-01T02:18:00.669Z,0.00
2019-06-01T02:19:00.560Z,0.00
2019-06-01T02:20:00.268Z,0.00
2019-06-01T02:21:00.502Z,0.00
2019-06-01T02:22:00.706Z,0.00
2019-06-01T02:23:01.004Z,0.00
2019-06-01T02:24:01.251Z,0.00
2019-06-01T02:25:00.013Z,0.00
2019-06-01T02:26:01.171Z,0.00
2019-06-01T02:27:01.281Z,0.00
2019-06-01T02:28:01.156Z,0.00
2019-06-01T02:28:59.953Z,0.00
2019-06-01T02:29:59.948Z,0.00
2019-06-01T02:31:00.146Z,0.00
2019-06-01T02:32:01.747Z,0.00
2019-06-01T02:33:00.195Z,0.00
2019-06-01T02:34:01.503Z,0.00
2019-06-01T02:35:00.313Z,0.00
2019-06-01T02:36:00.620Z,0.00
2019-06-01T02:37:00.323Z,0.00
2019-06-01T02:38:00.364Z,0.00
2019-06-01T02:39:01.078Z,0.00
2019-06-01T02:40:00.951Z,0.00
2019-06-01T02:41:01.161Z,0.00
2019-06-01T02:42:01.251Z,4.00
2019-06-01T02:43:01.396Z,4.00
2019-06-01T02:44:01.409Z,4.00
2019-06-01T02:45:01.153Z,0.00
2019-06-01T02:46:00.461Z,0.00
2019-06-01T02:47:01.381Z,4.00
2019-06-01T02:48:01.541Z,4.00
2019-06-01T02:48:59.845Z,8.00
2019-06-01T02:49:59.631Z,4.00
2019-06-01T02:50:59.936Z,8.00
2019-06-01T02:51:59.599Z,4.00
2019-06-01T02:52:59.583Z,8.00
2019-06-01T02:53:59.652Z,8.00
2019-06-01T02:54:59.665Z,8.00
2019-06-01T02:55:59.949Z,8.00
2019-06-01T02:57:00.211Z,12.00
2019-06-01T02:58:00.209Z,16.00
2019-06-01T02:59:00.364Z,16.00
2019-06-01T03:00:00.410Z,16.00
2019-06-01T03:01:00.562Z,20.00
2019-06-01T03:02:04.831Z,24.00
2019-06-01T03:02:59.429Z,24.00
2019-06-01T03:03:59.574Z,28.00
2019-06-01T03:04:59.402Z,28.00
2019-06-01T03:05:59.382Z,32.00
2019-06-01T03:06:59.596Z,36.00
2019-06-01T03:07:59.425Z,40.00
2019-06-01T03:08:59.819Z,44.00
2019-06-01T03:10:00.637Z,48.00
2019-06-01T03:10:59.659Z,56.00
2019-06-01T03:12:00.821Z,60.00
2019-06-01T03:13:00.124Z,64.00
2019-06-01T03:14:00.330Z,72.00
2019-06-01T03:15:00.381Z,76.00
2019-06-01T03:16:00.251Z,84.00
2019-06-01T03:16:59.763Z,88.00
2019-06-01T03:17:59.454Z,96.00
2019-06-01T03:18:59.653Z,104.00
2019-06-01T03:19:59.611Z,112.00
2019-06-01T03:20:59.538Z,120.00
2019-06-01T03:21:59.628Z,128.00
2019-06-01T03:22:59.644Z,140.00
2019-06-01T03:23:59.751Z,152.00
2019-06-01T03:24:59.789Z,164.00
2019-06-01T03:25:59.871Z,172.00
2019-06-01T03:26:59.767Z,188.00
2019-06-01T03:28:00.012Z,196.00
2019-06-01T03:29:00.065Z,208.00
2019-06-01T03:30:00.248Z,228.00
2019-06-01T03:31:00.950Z,240.00
2019-06-01T03:32:22.530Z,252.00
2019-06-01T03:32:58.964Z,268.00
2019-06-01T03:33:58.957Z,288.00
2019-06-01T03:34:58.935Z,304.00
2019-06-01T03:35:58.915Z,328.00
2019-06-01T03:36:58.900Z,344.00
2019-06-01T03:37:58.891Z,360.00
2019-06-01T03:38:59.943Z,380.00
2019-06-01T03:39:58.859Z,404.00
2019-06-01T03:40:59.902Z,428.00
2019-06-01T03:41:58.822Z,448.00
2019-06-01T03:43:00.062Z,476.00
2019-06-01T03:43:58.807Z,496.00
2019-06-01T03:44:58.776Z,520.00
2019-06-01T03:45:58.761Z,536.00
2019-06-01T03:46:58.759Z,556.00
2019-06-01T03:47:58.733Z,580.00
2019-06-01T03:48:58.712Z,604.00
2019-06-01T03:49:58.698Z,640.00
2019-06-01T03:50:58.680Z,668.00
2019-06-01T03:51:58.668Z,708.00
2019-06-01T03:52:58.657Z,732.00
2019-06-01T03:53:58.650Z,752.00
2019-06-01T03:54:58.619Z,772.00
2019-06-01T03:55:58.605Z,796.00
2019-06-01T03:56:58.589Z,828.00
2019-06-01T03:57:58.575Z,860.00
2019-06-01T03:58:58.560Z,892.00
2019-06-01T03:59:58.559Z,916.00
2019-06-01T04:00:58.527Z,936.00
2019-06-01T04:01:58.510Z,956.00
2019-06-01T04:02:58.496Z,984.00
2019-06-01T04:03:58.478Z,1016.00
2019-06-01T04:04:58.466Z,1052.00
2019-06-01T04:05:58.450Z,1088.00
2019-06-01T04:06:58.442Z,1116.00
2019-06-01T04:07:58.419Z,1124.00
2019-06-01T04:08:58.403Z,1124.00
2019-06-01T04:09:58.391Z,1140.00
2019-06-01T04:10:58.375Z,1168.00
2019-06-01T04:11:58.362Z,1200.00
2019-06-01T04:12:58.344Z,1228.00
2019-06-01T04:13:58.335Z,1248.00
2019-06-01T04:14:58.310Z,1256.00
2019-06-01T04:15:58.300Z,1260.00
2019-06-01T04:16:58.285Z,1252.00
2019-06-01T04:17:58.262Z,1240.00
2019-06-01T04:18:58.246Z,1224.00
2019-06-01T04:19:58.238Z,1224.00
2019-06-01T04:20:58.220Z,1224.00
2019-06-01T04:21:58.201Z,1236.00
2019-06-01T04:22:58.187Z,1256.00
2019-06-01T04:23:58.193Z,1284.00
2019-06-01T04:24:58.154Z,1316.00
2019-06-01T04:25:58.144Z,1328.00
2019-06-01T04:26:58.120Z,1352.00
2019-06-01T04:27:58.110Z,1380.00
2019-06-01T04:28:58.094Z,1412.00
2019-06-01T04:29:58.083Z,1456.00
2019-06-01T04:30:58.062Z,1500.00
2019-06-01T04:31:58.043Z,1516.00
2019-06-01T04:32:58.040Z,1556.00
2019-06-01T04:33:58.011Z,1628.00
2019-06-01T04:34:57.996Z,1680.00
2019-06-01T04:35:57.981Z,1716.00
2019-06-01T04:36:57.970Z,1720.00
2019-06-01T04:37:57.954Z,1712.00
2019-06-01T04:38:57.936Z,1708.00
2019-06-01T04:39:57.922Z,1720.00
2019-06-01T04:40:57.924Z,1756.00
2019-06-01T04:41:57.890Z,1808.00
2019-06-01T04:42:57.877Z,1864.00
2019-06-01T04:43:57.859Z,1920.00
2019-06-01T04:44:57.844Z,2000.00
2019-06-01T04:45:57.833Z,2056.00
2019-06-01T04:46:57.813Z,2048.00
2019-06-01T04:47:57.796Z,1992.00
2019-06-01T04:48:57.783Z,1984.00
2019-06-01T04:49:57.773Z,2020.00
2019-06-01T04:50:57.769Z,2036.00
2019-06-01T04:51:57.737Z,2032.00
2019-06-01T04:52:57.719Z,1992.00
2019-06-01T04:53:57.707Z,2000.00
2019-06-01T04:54:57.696Z,2076.00
2019-06-01T04:55:57.678Z,2088.00
2019-06-01T04:56:57.661Z,2056.00
2019-06-01T04:57:57.644Z,2028.00
2019-06-01T04:58:57.634Z,2040.00
2019-06-01T04:59:57.615Z,2088.00
2019-06-01T05:00:57.613Z,2156.00
2019-06-01T05:01:57.587Z,2136.00
2019-06-01T05:03:05.235Z,2116.00
2019-06-01T05:03:57.553Z,2136.00
2019-06-01T05:04:57.540Z,2116.00
2019-06-01T05:05:57.526Z,2140.00
2019-06-01T05:06:57.512Z,2092.00
2019-06-01T05:07:57.506Z,2156.00
2019-06-01T05:08:57.486Z,2284.00
2019-06-01T05:09:57.466Z,2468.00
2019-06-01T05:10:57.450Z,2540.00
2019-06-01T05:11:57.439Z,2532.00
2019-06-01T05:12:57.425Z,2540.00
2019-06-01T05:13:57.406Z,2540.00
2019-06-01T05:14:57.391Z,2524.00
2019-06-01T05:15:57.380Z,2584.00
2019-06-01T05:16:57.367Z,2608.00
2019-06-01T05:17:57.376Z,2664.00
2019-06-01T05:18:57.331Z,2712.00
2019-06-01T05:19:57.321Z,2732.00
2019-06-01T05:20:57.303Z,2764.00
2019-06-01T05:21:57.290Z,2780.00
2019-06-01T05:22:57.280Z,2788.00
2019-06-01T05:23:57.257Z,2800.00
2019-06-01T05:24:57.246Z,2816.00
2019-06-01T05:25:57.229Z,2824.00
2019-06-01T05:26:57.212Z,2840.00
2019-06-01T05:27:57.201Z,2848.00
2019-06-01T05:28:57.198Z,2872.00
2019-06-01T05:29:57.172Z,2888.00
2019-06-01T05:30:57.159Z,2912.00
2019-06-01T05:31:57.139Z,2932.00
2019-06-01T05:32:57.131Z,2964.00
2019-06-01T05:33:57.218Z,2992.00
2019-06-01T05:34:57.098Z,3032.00
2019-06-01T05:35:57.091Z,3076.00
2019-06-01T05:36:57.072Z,3112.00
2019-06-01T05:37:57.056Z,3160.00
2019-06-01T05:38:57.044Z,3224.00
2019-06-01T05:39:57.024Z,3288.00
2019-06-01T05:40:57.009Z,3344.00
2019-06-01T05:41:56.995Z,3400.00
2019-06-01T05:42:56.979Z,3452.00
2019-06-01T05:43:56.969Z,3476.00
2019-06-01T05:44:56.953Z,3372.00
2019-06-01T05:45:56.938Z,3516.00
2019-06-01T05:46:56.922Z,3456.00
2019-06-01T05:47:56.914Z,3332.00
2019-06-01T05:48:56.898Z,3260.00
2019-06-01T05:49:56.880Z,3276.00
2019-06-01T05:50:56.872Z,3440.00
2019-06-01T05:51:56.861Z,3624.00
2019-06-01T05:52:56.838Z,3572.00
2019-06-01T05:53:56.823Z,3664.00
2019-06-01T05:54:56.815Z,3776.00
2019-06-01T05:55:56.792Z,3776.00
2019-06-01T05:56:56.785Z,4056.00
2019-06-01T05:57:56.769Z,4368.00
2019-06-01T05:58:56.757Z,4296.00
2019-06-01T05:59:56.743Z,4528.00
2019-06-01T06:00:56.730Z,4668.00
2019-06-01T06:01:56.710Z,4812.00
2019-06-01T06:02:56.697Z,4800.00
2019-06-01T06:03:56.682Z,4496.00
2019-06-01T06:04:56.669Z,4740.00
2019-06-01T06:05:56.656Z,4816.00
2019-06-01T06:06:56.644Z,4964.00
2019-06-01T06:07:56.631Z,5336.00
2019-06-01T06:08:56.619Z,5364.00
2019-06-01T06:09:56.613Z,5248.00
2019-06-01T06:10:56.589Z,5292.00
2019-06-01T06:11:56.576Z,5244.00
2019-06-01T06:12:56.557Z,5640.00
2019-06-01T06:13:56.548Z,5780.00
2019-06-01T06:14:56.532Z,5892.00
2019-06-01T06:15:56.525Z,5932.00
2019-06-01T06:16:56.511Z,5820.00
2019-06-01T06:17:56.508Z,5648.00
2019-06-01T06:18:56.487Z,5520.00
2019-06-01T06:19:56.463Z,5456.00
2019-06-01T06:20:56.456Z,5560.00
2019-06-01T06:21:56.441Z,5652.00
2019-06-01T06:22:56.428Z,5644.00
2019-06-01T06:23:56.415Z,5672.00
2019-06-01T06:24:56.408Z,5668.00
2019-06-01T06:25:56.388Z,5676.00
2019-06-01T06:26:56.375Z,5692.00
2019-06-01T06:27:56.358Z,5656.00
2019-06-01T06:28:56.394Z,5628.00
2019-06-01T06:29:56.332Z,5736.00
2019-06-01T06:30:56.320Z,5796.00
2019-06-01T06:31:56.310Z,5864.00
2019-06-01T06:32:56.307Z,5896.00
2019-06-01T06:33:57.236Z,5932.00
2019-06-01T06:34:56.278Z,5928.00
2019-06-01T06:35:56.256Z,5852.00
2019-06-01T06:36:56.246Z,5908.00
2019-06-01T06:37:56.229Z,5888.00
2019-06-01T06:38:56.216Z,5796.00
2019-06-01T06:39:56.199Z,5712.00
2019-06-01T06:40:56.195Z,5800.00
2019-06-01T06:41:56.177Z,5804.00
2019-06-01T06:42:56.166Z,5892.00
2019-06-01T06:43:56.156Z,5720.00
2019-06-01T06:44:56.156Z,5708.00
2019-06-01T06:45:56.154Z,5700.00
2019-06-01T06:46:56.120Z,5588.00
2019-06-01T06:47:56.102Z,5636.00
2019-06-01T06:48:56.086Z,5672.00
2019-06-01T06:49:56.080Z,5748.00
2019-06-01T06:50:56.061Z,5876.00
2019-06-01T06:51:56.047Z,5920.00
2019-06-01T06:52:56.047Z,5892.00
2019-06-01T06:53:56.032Z,5932.00
2019-06-01T06:54:56.016Z,6052.00
2019-06-01T06:55:56.012Z,6148.00
2019-06-01T06:56:55.993Z,6304.00
2019-06-01T06:57:56.029Z,6376.00
2019-06-01T06:58:55.958Z,6348.00
2019-06-01T06:59:55.945Z,6252.00
2019-06-01T07:00:55.952Z,6240.00
2019-06-01T07:01:55.942Z,6364.00
2019-06-01T07:02:55.918Z,6568.00
2019-06-01T07:04:09.428Z,6580.00
2019-06-01T07:04:55.898Z,6540.00
2019-06-01T07:05:55.879Z,6492.00
2019-06-01T07:06:55.860Z,6500.00
2019-06-01T07:07:55.857Z,6568.00
2019-06-01T07:08:55.841Z,6504.00
2019-06-01T07:09:55.834Z,6464.00
2019-06-01T07:10:55.836Z,6456.00
2019-06-01T07:11:55.799Z,6524.00
2019-06-01T07:12:55.792Z,6628.00
2019-06-01T07:13:55.801Z,6724.00
2019-06-01T07:14:55.761Z,6772.00
2019-06-01T07:15:55.749Z,6652.00
2019-06-01T07:16:55.749Z,6676.00
2019-06-01T07:17:55.722Z,6768.00
2019-06-01T07:18:55.712Z,6860.00
2019-06-01T07:19:55.702Z,6912.00
2019-06-01T07:20:55.704Z,7024.00
2019-06-01T07:21:55.678Z,7192.00
2019-06-01T07:22:55.699Z,7332.00
2019-06-01T07:23:55.681Z,7332.00
2019-06-01T07:24:55.643Z,7464.00
2019-06-01T07:25:55.625Z,7600.00
2019-06-01T07:26:55.621Z,7660.00
2019-06-01T07:27:55.601Z,7764.00
2019-06-01T07:28:55.604Z,7864.00
2019-06-01T07:29:55.579Z,8048.00
2019-06-01T07:30:55.573Z,8196.00
2019-06-01T07:31:55.557Z,8188.00
2019-06-01T07:32:55.545Z,8232.00
2019-06-01T07:33:55.545Z,8324.00
2019-06-01T07:34:55.528Z,8424.00
2019-06-01T07:35:55.512Z,8532.00
2019-06-01T07:36:55.505Z,8396.00
2019-06-01T07:37:55.489Z,8500.00
2019-06-01T07:38:55.476Z,8772.00
2019-06-01T07:39:55.473Z,8728.00
2019-06-01T07:40:55.451Z,8792.00
2019-06-01T07:41:55.453Z,9160.00
2019-06-01T07:42:55.433Z,9224.00
2019-06-01T07:43:55.417Z,9380.00
2019-06-01T07:44:55.406Z,9516.00
2019-06-01T07:45:55.394Z,9592.00
2019-06-01T07:46:55.388Z,9712.00
2019-06-01T07:47:55.389Z,9900.00
2019-06-01T07:48:55.364Z,9984.00
2019-06-01T07:49:55.355Z,10060.00
2019-06-01T07:50:55.335Z,10304.00
2019-06-01T07:51:55.465Z,10444.00
2019-06-01T07:52:55.323Z,10508.00
2019-06-01T07:53:55.309Z,10420.00
2019-06-01T07:54:55.290Z,10608.00
2019-06-01T07:55:55.282Z,10272.00
2019-06-01T07:56:55.268Z,10576.00
2019-06-01T07:57:55.259Z,11104.00
2019-06-01T07:58:55.250Z,11328.00
2019-06-01T07:59:55.238Z,11376.00
2019-06-01T08:00:55.231Z,11524.00
2019-06-01T08:01:55.265Z,11316.00
2019-06-01T08:02:55.204Z,11232.00
2019-06-01T08:03:55.196Z,11624.00
2019-06-01T08:04:55.205Z,11772.00
2019-06-01T08:05:55.172Z,11728.00
2019-06-01T08:06:55.222Z,11632.00
2019-06-01T08:07:55.151Z,11760.00
2019-06-01T08:08:55.149Z,11600.00
2019-06-01T08:09:55.133Z,11724.00
2019-06-01T08:10:55.123Z,11920.00
2019-06-01T08:11:55.120Z,10904.00
2019-06-01T08:12:55.108Z,12300.00
2019-06-01T08:13:55.099Z,12276.00
2019-06-01T08:14:55.091Z,12572.00
2019-06-01T08:15:55.072Z,12768.00
2019-06-01T08:16:55.058Z,12756.00
2019-06-01T08:17:55.049Z,12812.00
2019-06-01T08:18:55.046Z,12884.00
2019-06-01T08:19:55.029Z,12832.00
2019-06-01T08:20:55.031Z,12884.00
2019-06-01T08:21:55.016Z,12956.00
2019-06-01T08:22:55.000Z,11772.00
2019-06-01T08:23:54.989Z,11256.00
2019-06-01T08:24:54.981Z,11320.00
2019-06-01T08:25:54.975Z,10520.00
2019-06-01T08:26:54.964Z,10080.00
2019-06-01T08:27:54.960Z,9616.00
2019-06-01T08:28:54.948Z,9108.00
2019-06-01T08:29:54.941Z,9064.00
2019-06-01T08:30:54.937Z,9192.00
2019-06-01T08:31:55.870Z,9636.00
2019-06-01T08:32:54.904Z,9696.00
2019-06-01T08:33:54.903Z,9668.00
2019-06-01T08:35:07.998Z,9564.00
2019-06-01T08:35:54.890Z,9412.00
2019-06-01T08:36:54.871Z,9724.00
2019-06-01T08:37:54.859Z,9804.00
2019-06-01T08:38:54.850Z,10844.00
2019-06-01T08:39:58.901Z,11276.00
2019-06-01T08:40:54.840Z,11896.00
2019-06-01T08:41:54.830Z,13228.00
2019-06-01T08:42:54.820Z,13484.00
2019-06-01T08:43:54.801Z,13360.00
2019-06-01T08:44:54.816Z,13436.00
2019-06-01T08:45:54.791Z,14068.00
2019-06-01T08:46:54.788Z,14716.00
2019-06-01T08:47:54.774Z,15308.00
2019-06-01T08:48:54.759Z,14712.00
2019-06-01T08:49:54.754Z,14368.00
2019-06-01T08:50:54.743Z,15172.00
2019-06-01T08:51:54.734Z,15272.00
2019-06-01T08:52:54.733Z,15840.00
2019-06-01T08:53:54.732Z,16096.00
2019-06-01T08:54:54.714Z,16320.00
2019-06-01T08:55:54.705Z,16928.00
2019-06-01T08:56:54.702Z,17888.00
2019-06-01T08:57:54.698Z,18304.00
2019-06-01T08:58:54.689Z,19584.00
2019-06-01T08:59:54.680Z,22144.00
2019-06-01T09:00:54.670Z,24640.00
2019-06-01T09:01:54.668Z,30208.00
2019-06-01T09:02:54.661Z,37312.00
2019-06-01T09:03:54.654Z,52896.00
2019-06-01T09:04:54.651Z,61184.00
2019-06-01T09:05:54.648Z,46496.00
2019-06-01T09:06:54.639Z,28512.00
2019-06-01T09:07:54.636Z,23488.00
2019-06-01T09:08:54.637Z,23296.00
2019-06-01T09:09:54.629Z,22624.00
2019-06-01T09:10:54.652Z,22176.00
2019-06-01T09:11:54.625Z,22592.00
2019-06-01T09:12:54.619Z,23392.00
2019-06-01T09:13:54.615Z,24480.00
2019-06-01T09:14:54.607Z,23968.00
2019-06-01T09:15:54.610Z,24672.00
2019-06-01T09:16:54.606Z,25888.00
2019-06-01T09:17:54.597Z,27520.00
2019-06-01T09:18:54.610Z,27648.00
2019-06-01T09:19:54.626Z,29024.00
2019-06-01T09:20:54.588Z,29056.00
2019-06-01T09:21:54.589Z,28992.00
2019-06-01T09:22:54.581Z,27552.00
2019-06-01T09:23:54.578Z,29824.00
2019-06-01T09:24:54.585Z,30432.00
2019-06-01T09:25:54.578Z,30912.00
2019-06-01T09:26:54.571Z,30976.00
2019-06-01T09:27:54.571Z,32192.00
2019-06-01T09:28:54.567Z,32768.00
2019-06-01T09:29:54.562Z,34080.00
2019-06-01T09:30:54.556Z,33632.00
2019-06-01T09:31:54.572Z,32512.00
2019-06-01T09:32:54.549Z,30976.00
2019-06-01T09:33:54.555Z,32896.00
2019-06-01T09:34:54.558Z,33440.00
2019-06-01T09:35:56.371Z,33856.00
2019-06-01T09:36:55.591Z,31776.00
2019-06-01T09:37:54.537Z,31104.00
2019-06-01T09:38:54.530Z,29024.00
2019-06-01T09:39:54.538Z,30720.00
2019-06-01T09:40:54.525Z,34304.00
2019-06-01T09:41:54.520Z,32512.00
2019-06-01T09:42:54.521Z,31200.00
2019-06-01T09:43:54.520Z,30464.00
2019-06-01T09:44:54.511Z,2344.00
2019-06-01T09:45:54.509Z,2404.00
2019-06-01T09:46:54.501Z,2432.00
2019-06-01T09:47:54.501Z,2368.00
2019-06-01T09:48:54.494Z,2320.00
2019-06-01T09:49:54.488Z,2296.00
2019-06-01T09:50:54.483Z,2364.00
2019-06-01T09:51:54.485Z,2328.00
2019-06-01T09:52:54.476Z,2396.00
2019-06-01T09:53:54.472Z,2396.00
2019-06-01T09:54:54.459Z,2344.00
2019-06-01T09:55:54.453Z,2404.00
2019-06-01T09:56:54.446Z,2368.00
2019-06-01T09:57:54.437Z,2412.00
2019-06-01T09:58:54.434Z,2424.00
2019-06-01T09:59:54.425Z,2436.00
2019-06-01T10:00:54.419Z,2476.00
2019-06-01T10:01:54.417Z,2212.00
2019-06-01T10:02:54.413Z,2376.00
2019-06-01T10:03:54.398Z,2888.00
2019-06-01T10:04:54.390Z,3692.00
2019-06-01T10:06:01.813Z,4260.00
2019-06-01T10:06:54.379Z,4336.00
2019-06-01T10:07:54.369Z,4708.00
2019-06-01T10:08:54.360Z,5012.00
2019-06-01T10:09:54.354Z,4936.00
2019-06-01T10:10:54.344Z,4592.00
2019-06-01T10:11:54.338Z,2336.00
2019-06-01T10:12:54.338Z,2492.00
2019-06-01T10:13:54.322Z,2328.00
2019-06-01T10:14:54.320Z,2500.00
2019-06-01T10:15:54.310Z,2480.00
2019-06-01T10:16:54.299Z,2476.00
2019-06-01T10:17:54.297Z,2488.00
2019-06-01T10:18:54.325Z,2200.00
2019-06-01T10:19:54.277Z,2480.00
2019-06-01T10:20:54.270Z,2452.00
2019-06-01T10:21:54.264Z,2564.00
2019-06-01T10:22:54.258Z,2448.00
2019-06-01T10:23:54.253Z,2396.00
2019-06-01T10:24:54.234Z,2412.00
2019-06-01T10:25:54.239Z,2404.00
2019-06-01T10:26:54.220Z,2364.00
2019-06-01T10:27:54.211Z,2508.00
2019-06-01T10:28:54.215Z,2524.00
2019-06-01T10:29:54.194Z,2504.00
2019-06-01T10:30:54.187Z,2472.00
2019-06-01T10:31:54.182Z,2512.00
2019-06-01T10:32:54.172Z,2480.00
2019-06-01T10:33:54.160Z,2492.00
2019-06-01T10:34:54.153Z,2512.00
2019-06-01T10:35:54.146Z,2520.00
2019-06-01T10:36:54.142Z,2436.00
2019-06-01T10:37:54.130Z,2504.00
2019-06-01T10:38:54.122Z,2492.00
2019-06-01T10:39:54.116Z,2452.00
2019-06-01T10:40:54.111Z,2520.00
2019-06-01T10:41:54.095Z,2440.00
2019-06-01T10:42:54.085Z,2388.00
2019-06-01T10:43:54.083Z,2376.00
2019-06-01T10:44:54.071Z,2452.00
2019-06-01T10:45:54.062Z,2376.00
2019-06-01T10:46:54.071Z,2452.00
2019-06-01T10:47:54.051Z,2428.00
2019-06-01T10:48:54.044Z,2396.00
2019-06-01T10:49:54.031Z,2380.00
2019-06-01T10:50:54.023Z,2660.00
2019-06-01T10:51:54.012Z,2580.00
2019-06-01T10:52:54.009Z,2588.00
2019-06-01T10:53:53.999Z,2516.00
2019-06-01T10:54:53.989Z,2528.00
2019-06-01T10:55:53.981Z,2512.00
2019-06-01T10:56:53.970Z,2536.00
2019-06-01T10:57:53.966Z,2500.00
2019-06-01T10:59:00.019Z,2500.00
2019-06-01T10:59:53.968Z,2516.00
2019-06-01T11:00:53.942Z,2524.00
2019-06-01T11:01:53.942Z,2408.00
2019-06-01T11:02:53.929Z,2452.00
2019-06-01T11:03:53.958Z,2468.00
2019-06-01T11:04:53.908Z,2428.00
2019-06-01T11:05:53.898Z,2508.00
2019-06-01T11:06:53.894Z,2356.00
2019-06-01T11:07:53.889Z,2500.00
2019-06-01T11:08:53.872Z,2528.00
2019-06-01T11:09:53.869Z,2488.00
2019-06-01T11:10:53.893Z,2376.00
2019-06-01T11:11:53.846Z,2244.00
2019-06-01T11:12:53.840Z,2352.00
2019-06-01T11:13:53.830Z,2428.00
2019-06-01T11:14:53.820Z,2484.00
2019-06-01T11:15:53.813Z,2424.00
2019-06-01T11:16:56.635Z,2344.00
2019-06-01T11:17:53.796Z,2364.00
2019-06-01T11:18:53.800Z,2428.00
2019-06-01T11:19:53.790Z,2368.00
2019-06-01T11:20:53.773Z,2400.00
2019-06-01T11:21:53.766Z,2260.00
2019-06-01T11:22:53.759Z,2668.00
2019-06-01T11:23:53.747Z,2656.00
2019-06-01T11:24:53.754Z,2516.00
2019-06-01T11:25:53.741Z,2484.00
2019-06-01T11:26:53.727Z,2512.00
2019-06-01T11:27:53.736Z,2468.00
2019-06-01T11:28:53.712Z,2456.00
2019-06-01T11:29:53.702Z,2484.00
2019-06-01T11:30:53.702Z,2488.00
2019-06-01T11:31:53.685Z,2504.00
2019-06-01T11:32:53.676Z,2576.00
2019-06-01T11:33:53.669Z,2576.00
2019-06-01T11:34:53.662Z,2588.00
2019-06-01T11:35:53.649Z,2616.00
2019-06-01T11:37:05.114Z,2708.00
2019-06-01T11:37:53.635Z,2740.00
2019-06-01T11:38:53.639Z,2776.00
2019-06-01T11:39:53.625Z,2772.00
2019-06-01T11:40:53.616Z,2728.00
2019-06-01T11:41:53.599Z,2764.00
2019-06-01T11:42:53.597Z,2784.00
2019-06-01T11:43:53.589Z,2756.00
2019-06-01T11:44:53.597Z,2720.00
2019-06-01T11:45:53.569Z,2704.00
2019-06-01T11:46:53.607Z,2608.00
2019-06-01T11:47:53.560Z,2608.00
2019-06-01T11:48:53.548Z,2604.00
2019-06-01T11:49:53.546Z,2584.00
2019-06-01T11:50:53.524Z,2456.00
2019-06-01T11:51:53.529Z,2496.00
2019-06-01T11:52:53.519Z,2532.00
2019-06-01T11:53:53.507Z,2552.00
2019-06-01T11:54:53.496Z,2704.00
2019-06-01T11:55:53.485Z,2784.00
2019-06-01T11:56:53.479Z,2788.00
2019-06-01T11:57:53.484Z,2780.00
2019-06-01T11:58:53.461Z,2756.00
2019-06-01T11:59:53.466Z,2772.00
2019-06-01T12:00:53.457Z,2744.00
2019-06-01T12:01:53.448Z,2776.00
2019-06-01T12:02:53.438Z,2592.00
2019-06-01T12:03:53.421Z,2592.00
2019-06-01T12:04:53.415Z,2600.00
2019-06-01T12:05:53.409Z,2584.00
2019-06-01T12:06:53.410Z,2612.00
2019-06-01T12:07:53.397Z,2584.00
2019-06-01T12:08:53.384Z,2576.00
2019-06-01T12:09:53.383Z,2604.00
2019-06-01T12:10:53.375Z,2644.00
2019-06-01T12:11:53.372Z,2652.00
2019-06-01T12:12:53.386Z,2524.00
2019-06-01T12:13:53.341Z,2544.00
2019-06-01T12:14:53.333Z,2600.00
2019-06-01T12:15:53.327Z,2576.00
2019-06-01T12:16:53.318Z,2552.00
2019-06-01T12:17:53.309Z,2664.00
2019-06-01T12:18:53.303Z,2604.00
2019-06-01T12:19:53.292Z,2668.00
2019-06-01T12:20:53.284Z,2604.00